sensor_id;sensor_type;location;lat;lon;timestamp;temperature;humidity
7494;DHT22;3788;49.902;8.590;2023-08-07T00:01:17;14.50;99.90
7494;DHT22;3788;49.902;8.590;2023-08-07T00:03:43;14.50;99.90
7494;DHT22;3788;49.902;8.590;2023-08-07T00:06:10;14.50;99.90
7494;DHT22;3788;49.902;8.590;2023-08-07T00:08:38;14.50;99.90
7494;DHT22;3788;49.902;8.590;2023-08-07T00:11:06;14.50;99.90
7494;DHT22;3788;49.902;8.590;2023-08-07T00:13:32;14.50;99.90
7494;DHT22;3788;49.902;8.590;2023-08-07T00:15:59;14.50;99.90
7494;DHT22;3788;49.902;8.590;2023-08-07T00:18:25;14.50;99.90
7494;DHT22;3788;49.902;8.590;2023-08-07T00:20:52;14.50;99.90
7494;DHT22;3788;49.902;8.590;2023-08-07T00:23:19;14.50;99.90
7494;DHT22;3788;49.902;8.590;2023-08-07T00:25:47;14.50;99.90
7494;DHT22;3788;49.902;8.590;2023-08-07T00:28:13;14.40;99.90
7494;DHT22;3788;49.902;8.590;2023-08-07T00:30:40;14.40;99.90
7494;DHT22;3788;49.902;8.590;2023-08-07T00:33:06;14.40;99.90
7494;DHT22;3788;49.902;8.590;2023-08-07T00:35:33;14.40;99.90
7494;DHT22;3788;49.902;8.590;2023-08-07T00:38:00;14.40;99.90
7494;DHT22;3788;49.902;8.590;2023-08-07T00:40:26;14.40;99.90
7494;DHT22;3788;49.902;8.590;2023-08-07T00:42:54;14.40;99.90
7494;DHT22;3788;49.902;8.590;2023-08-07T00:45:21;14.40;99.90
7494;DHT22;3788;49.902;8.590;2023-08-07T00:47:48;14.40;99.90
7494;DHT22;3788;49.902;8.590;2023-08-07T00:50:14;14.40;99.90
7494;DHT22;3788;49.902;8.590;2023-08-07T00:52:41;14.40;99.90
7494;DHT22;3788;49.902;8.590;2023-08-07T00:55:08;14.40;99.90
7494;DHT22;3788;49.902;8.590;2023-08-07T00:57:35;14.30;99.90
7494;DHT22;3788;49.902;8.590;2023-08-07T01:00:05;14.30;99.90
7494;DHT22;3788;49.902;8.590;2023-08-07T01:02:33;14.30;99.90
7494;DHT22;3788;49.902;8.590;2023-08-07T01:05:00;14.30;99.90
7494;DHT22;3788;49.902;8.590;2023-08-07T01:07:26;14.30;99.90
7494;DHT22;3788;49.902;8.590;2023-08-07T01:09:53;14.30;99.90
7494;DHT22;3788;49.902;8.590;2023-08-07T01:12:25;14.30;99.90
7494;DHT22;3788;49.902;8.590;2023-08-07T01:14:58;14.30;99.90
7494;DHT22;3788;49.902;8.590;2023-08-07T01:17:29;14.30;99.90
7494;DHT22;3788;49.902;8.590;2023-08-07T01:19:59;14.30;99.90
7494;DHT22;3788;49.902;8.590;2023-08-07T01:22:27;14.30;99.90
7494;DHT22;3788;49.902;8.590;2023-08-07T01:24:54;14.30;99.90
7494;DHT22;3788;49.902;8.590;2023-08-07T01:27:32;14.30;99.90
7494;DHT22;3788;49.902;8.590;2023-08-07T01:30:21;14.30;99.90
7494;DHT22;3788;49.902;8.590;2023-08-07T01:32:59;14.30;99.90
7494;DHT22;3788;49.902;8.590;2023-08-07T01:35:33;14.30;99.90
7494;DHT22;3788;49.902;8.590;2023-08-07T01:38:02;14.30;99.90
7494;DHT22;3788;49.902;8.590;2023-08-07T01:40:30;14.30;99.90
7494;DHT22;3788;49.902;8.590;2023-08-07T01:42:57;14.30;99.90
7494;DHT22;3788;49.902;8.590;2023-08-07T01:45:25;14.30;99.90
7494;DHT22;3788;49.902;8.590;2023-08-07T01:47:52;14.30;99.90
7494;DHT22;3788;49.902;8.590;2023-08-07T01:50:19;14.30;99.90
7494;DHT22;3788;49.902;8.590;2023-08-07T01:52:46;14.30;99.90
7494;DHT22;3788;49.902;8.590;2023-08-07T01:55:15;14.30;99.90
7494;DHT22;3788;49.902;8.590;2023-08-07T01:57:42;14.30;99.90
7494;DHT22;3788;49.902;8.590;2023-08-07T02:00:09;14.20;99.90
7494;DHT22;3788;49.902;8.590;2023-08-07T02:02:37;14.20;99.90
7494;DHT22;3788;49.902;8.590;2023-08-07T02:05:04;14.20;99.90
7494;DHT22;3788;49.902;8.590;2023-08-07T02:07:31;14.30;99.90
7494;DHT22;3788;49.902;8.590;2023-08-07T02:09:58;14.30;99.90
7494;DHT22;3788;49.902;8.590;2023-08-07T02:12:26;14.30;99.90
7494;DHT22;3788;49.902;8.590;2023-08-07T02:14:55;14.30;99.90
7494;DHT22;3788;49.902;8.590;2023-08-07T02:17:21;14.20;99.90
7494;DHT22;3788;49.902;8.590;2023-08-07T02:19:48;14.30;99.90
7494;DHT22;3788;49.902;8.590;2023-08-07T02:22:15;14.30;99.90
7494;DHT22;3788;49.902;8.590;2023-08-07T02:24:41;14.30;99.90
7494;DHT22;3788;49.902;8.590;2023-08-07T02:27:08;14.30;99.90
7494;DHT22;3788;49.902;8.590;2023-08-07T02:29:36;14.30;99.90
7494;DHT22;3788;49.902;8.590;2023-08-07T02:32:03;14.30;99.90
7494;DHT22;3788;49.902;8.590;2023-08-07T02:34:30;14.30;99.90
7494;DHT22;3788;49.902;8.590;2023-08-07T02:36:57;14.30;99.90
7494;DHT22;3788;49.902;8.590;2023-08-07T02:39:24;14.40;99.90
7494;DHT22;3788;49.902;8.590;2023-08-07T02:41:51;14.40;99.90
7494;DHT22;3788;49.902;8.590;2023-08-07T02:44:18;14.40;99.90
7494;DHT22;3788;49.902;8.590;2023-08-07T02:46:46;14.40;99.90
7494;DHT22;3788;49.902;8.590;2023-08-07T02:49:13;14.40;99.90
7494;DHT22;3788;49.902;8.590;2023-08-07T02:51:40;14.40;99.90
7494;DHT22;3788;49.902;8.590;2023-08-07T02:54:06;14.40;99.90
7494;DHT22;3788;49.902;8.590;2023-08-07T02:56:33;14.40;99.90
7494;DHT22;3788;49.902;8.590;2023-08-07T02:59:00;14.40;99.90
7494;DHT22;3788;49.902;8.590;2023-08-07T03:01:27;14.40;99.90
7494;DHT22;3788;49.902;8.590;2023-08-07T03:03:55;14.40;99.90
7494;DHT22;3788;49.902;8.590;2023-08-07T03:06:22;14.40;99.90
7494;DHT22;3788;49.902;8.590;2023-08-07T03:08:49;14.30;99.90
7494;DHT22;3788;49.902;8.590;2023-08-07T03:11:15;14.30;99.90
7494;DHT22;3788;49.902;8.590;2023-08-07T03:13:42;14.40;99.90
7494;DHT22;3788;49.902;8.590;2023-08-07T03:16:09;14.30;99.90
7494;DHT22;3788;49.902;8.590;2023-08-07T03:18:36;14.30;99.90
7494;DHT22;3788;49.902;8.590;2023-08-07T03:21:04;14.30;99.90
7494;DHT22;3788;49.902;8.590;2023-08-07T03:23:30;14.30;99.90
7494;DHT22;3788;49.902;8.590;2023-08-07T03:26:04;14.30;99.90
7494;DHT22;3788;49.902;8.590;2023-08-07T03:28:33;14.40;99.90
7494;DHT22;3788;49.902;8.590;2023-08-07T03:31:00;14.40;99.90
7494;DHT22;3788;49.902;8.590;2023-08-07T03:33:27;14.40;99.90
7494;DHT22;3788;49.902;8.590;2023-08-07T03:35:53;14.40;99.90
7494;DHT22;3788;49.902;8.590;2023-08-07T03:38:21;14.40;99.90
7494;DHT22;3788;49.902;8.590;2023-08-07T03:40:48;14.40;99.90
7494;DHT22;3788;49.902;8.590;2023-08-07T03:43:15;14.40;99.90
7494;DHT22;3788;49.902;8.590;2023-08-07T03:45:42;14.40;99.90
7494;DHT22;3788;49.902;8.590;2023-08-07T03:48:08;14.40;99.90
7494;DHT22;3788;49.902;8.590;2023-08-07T03:50:35;14.40;99.90
7494;DHT22;3788;49.902;8.590;2023-08-07T03:53:03;14.40;99.90
7494;DHT22;3788;49.902;8.590;2023-08-07T03:55:33;14.40;99.90
7494;DHT22;3788;49.902;8.590;2023-08-07T03:58:00;14.40;99.90
7494;DHT22;3788;49.902;8.590;2023-08-07T04:00:26;14.40;99.90
7494;DHT22;3788;49.902;8.590;2023-08-07T04:02:53;14.40;99.90
7494;DHT22;3788;49.902;8.590;2023-08-07T04:05:20;14.40;99.90
7494;DHT22;3788;49.902;8.590;2023-08-07T04:07:46;14.30;99.90
7494;DHT22;3788;49.902;8.590;2023-08-07T04:10:13;14.40;99.90
7494;DHT22;3788;49.902;8.590;2023-08-07T04:12:41;14.40;99.90
7494;DHT22;3788;49.902;8.590;2023-08-07T04:15:08;14.40;99.90
7494;DHT22;3788;49.902;8.590;2023-08-07T04:17:35;14.40;99.90
7494;DHT22;3788;49.902;8.590;2023-08-07T04:20:02;14.40;99.90
7494;DHT22;3788;49.902;8.590;2023-08-07T04:22:30;14.40;99.90
7494;DHT22;3788;49.902;8.590;2023-08-07T04:24:56;14.40;99.90
7494;DHT22;3788;49.902;8.590;2023-08-07T04:27:23;14.40;99.90
7494;DHT22;3788;49.902;8.590;2023-08-07T04:29:51;14.40;99.90
7494;DHT22;3788;49.902;8.590;2023-08-07T04:32:17;14.40;99.90
7494;DHT22;3788;49.902;8.590;2023-08-07T04:34:44;14.40;99.90
7494;DHT22;3788;49.902;8.590;2023-08-07T04:37:11;14.40;99.90
7494;DHT22;3788;49.902;8.590;2023-08-07T04:39:37;14.40;99.90
7494;DHT22;3788;49.902;8.590;2023-08-07T04:42:04;14.40;99.90
7494;DHT22;3788;49.902;8.590;2023-08-07T04:44:31;14.40;99.90
7494;DHT22;3788;49.902;8.590;2023-08-07T04:47:00;14.40;99.90
7494;DHT22;3788;49.902;8.590;2023-08-07T04:49:27;14.40;99.90
7494;DHT22;3788;49.902;8.590;2023-08-07T04:51:53;14.40;99.90
7494;DHT22;3788;49.902;8.590;2023-08-07T04:54:20;14.50;99.90
7494;DHT22;3788;49.902;8.590;2023-08-07T04:56:47;14.50;99.90
7494;DHT22;3788;49.902;8.590;2023-08-07T04:59:13;14.50;99.90
7494;DHT22;3788;49.902;8.590;2023-08-07T05:01:40;14.50;99.90
7494;DHT22;3788;49.902;8.590;2023-08-07T05:04:08;14.50;99.90
7494;DHT22;3788;49.902;8.590;2023-08-07T05:06:35;14.50;99.90
7494;DHT22;3788;49.902;8.590;2023-08-07T05:09:02;14.50;99.90
7494;DHT22;3788;49.902;8.590;2023-08-07T05:11:29;14.50;99.90
7494;DHT22;3788;49.902;8.590;2023-08-07T05:13:56;14.60;99.90
7494;DHT22;3788;49.902;8.590;2023-08-07T05:16:23;14.60;99.90
7494;DHT22;3788;49.902;8.590;2023-08-07T05:18:50;14.50;99.90
7494;DHT22;3788;49.902;8.590;2023-08-07T05:21:18;14.60;99.90
7494;DHT22;3788;49.902;8.590;2023-08-07T05:23:45;14.60;99.90
7494;DHT22;3788;49.902;8.590;2023-08-07T05:26:13;14.60;99.90
7494;DHT22;3788;49.902;8.590;2023-08-07T05:28:39;14.60;99.90
7494;DHT22;3788;49.902;8.590;2023-08-07T05:31:06;14.60;99.90
7494;DHT22;3788;49.902;8.590;2023-08-07T05:33:32;14.60;99.90
7494;DHT22;3788;49.902;8.590;2023-08-07T05:35:59;14.60;99.90
7494;DHT22;3788;49.902;8.590;2023-08-07T05:38:27;14.60;99.90
7494;DHT22;3788;49.902;8.590;2023-08-07T05:40:54;14.70;99.90
7494;DHT22;3788;49.902;8.590;2023-08-07T05:43:20;14.70;99.90
7494;DHT22;3788;49.902;8.590;2023-08-07T05:45:47;14.70;99.90
7494;DHT22;3788;49.902;8.590;2023-08-07T05:48:14;14.70;99.90
7494;DHT22;3788;49.902;8.590;2023-08-07T05:50:41;14.70;99.90
7494;DHT22;3788;49.902;8.590;2023-08-07T05:53:08;14.70;99.90
7494;DHT22;3788;49.902;8.590;2023-08-07T05:55:39;14.70;99.90
7494;DHT22;3788;49.902;8.590;2023-08-07T05:58:06;14.70;99.90
7494;DHT22;3788;49.902;8.590;2023-08-07T06:00:33;14.70;99.90
7494;DHT22;3788;49.902;8.590;2023-08-07T06:03:00;14.70;99.90
7494;DHT22;3788;49.902;8.590;2023-08-07T06:05:26;14.70;99.90
7494;DHT22;3788;49.902;8.590;2023-08-07T06:07:53;14.70;99.90
7494;DHT22;3788;49.902;8.590;2023-08-07T06:10:20;14.70;99.90
7494;DHT22;3788;49.902;8.590;2023-08-07T06:12:48;14.70;99.90
7494;DHT22;3788;49.902;8.590;2023-08-07T06:15:15;14.70;99.90
7494;DHT22;3788;49.902;8.590;2023-08-07T06:17:41;14.70;99.90
7494;DHT22;3788;49.902;8.590;2023-08-07T06:20:09;14.80;99.90
7494;DHT22;3788;49.902;8.590;2023-08-07T06:22:36;14.80;99.90
7494;DHT22;3788;49.902;8.590;2023-08-07T06:25:04;14.80;99.90
7494;DHT22;3788;49.902;8.590;2023-08-07T06:27:31;14.80;99.90
7494;DHT22;3788;49.902;8.590;2023-08-07T06:29:59;14.80;99.90
7494;DHT22;3788;49.902;8.590;2023-08-07T06:32:27;14.80;99.90
7494;DHT22;3788;49.902;8.590;2023-08-07T06:34:53;14.80;99.90
7494;DHT22;3788;49.902;8.590;2023-08-07T06:37:20;14.70;99.90
7494;DHT22;3788;49.902;8.590;2023-08-07T06:39:47;14.70;99.90
7494;DHT22;3788;49.902;8.590;2023-08-07T06:42:13;14.70;99.90
7494;DHT22;3788;49.902;8.590;2023-08-07T06:44:40;14.60;99.90
7494;DHT22;3788;49.902;8.590;2023-08-07T06:47:08;14.60;99.90
7494;DHT22;3788;49.902;8.590;2023-08-07T06:49:35;14.60;99.90
7494;DHT22;3788;49.902;8.590;2023-08-07T06:52:02;14.50;99.90
7494;DHT22;3788;49.902;8.590;2023-08-07T06:54:29;14.50;99.90
7494;DHT22;3788;49.902;8.590;2023-08-07T06:56:56;14.50;99.90
7494;DHT22;3788;49.902;8.590;2023-08-07T06:59:22;14.50;99.90
7494;DHT22;3788;49.902;8.590;2023-08-07T07:01:51;14.40;99.90
7494;DHT22;3788;49.902;8.590;2023-08-07T07:04:19;14.40;99.90
7494;DHT22;3788;49.902;8.590;2023-08-07T07:06:46;14.40;99.90
7494;DHT22;3788;49.902;8.590;2023-08-07T07:09:12;14.40;99.90
7494;DHT22;3788;49.902;8.590;2023-08-07T07:11:42;14.40;99.90
7494;DHT22;3788;49.902;8.590;2023-08-07T07:14:09;14.40;99.90
7494;DHT22;3788;49.902;8.590;2023-08-07T07:16:36;14.50;99.90
7494;DHT22;3788;49.902;8.590;2023-08-07T07:19:03;14.50;99.90
7494;DHT22;3788;49.902;8.590;2023-08-07T07:21:33;14.50;99.90
7494;DHT22;3788;49.902;8.590;2023-08-07T07:24:00;14.50;99.90
7494;DHT22;3788;49.902;8.590;2023-08-07T07:26:27;14.50;99.90
7494;DHT22;3788;49.902;8.590;2023-08-07T07:28:53;14.50;99.90
7494;DHT22;3788;49.902;8.590;2023-08-07T07:31:20;14.60;99.90
7494;DHT22;3788;49.902;8.590;2023-08-07T07:33:47;14.70;99.90
7494;DHT22;3788;49.902;8.590;2023-08-07T07:36:15;14.70;99.90
7494;DHT22;3788;49.902;8.590;2023-08-07T07:38:45;14.70;99.90
7494;DHT22;3788;49.902;8.590;2023-08-07T07:41:12;14.80;99.90
7494;DHT22;3788;49.902;8.590;2023-08-07T07:43:39;14.80;99.90
7494;DHT22;3788;49.902;8.590;2023-08-07T07:46:06;14.80;99.90
7494;DHT22;3788;49.902;8.590;2023-08-07T07:48:32;14.80;99.90
7494;DHT22;3788;49.902;8.590;2023-08-07T07:50:59;14.90;99.90
7494;DHT22;3788;49.902;8.590;2023-08-07T07:53:27;14.90;99.90
7494;DHT22;3788;49.902;8.590;2023-08-07T07:55:55;15.00;99.90
7494;DHT22;3788;49.902;8.590;2023-08-07T07:58:23;15.00;99.90
7494;DHT22;3788;49.902;8.590;2023-08-07T08:00:50;15.00;99.90
7494;DHT22;3788;49.902;8.590;2023-08-07T08:03:18;15.00;99.90
7494;DHT22;3788;49.902;8.590;2023-08-07T08:05:46;15.10;99.90
7494;DHT22;3788;49.902;8.590;2023-08-07T08:08:12;15.10;99.90
7494;DHT22;3788;49.902;8.590;2023-08-07T08:10:39;15.10;99.90
7494;DHT22;3788;49.902;8.590;2023-08-07T08:13:09;15.10;99.90
7494;DHT22;3788;49.902;8.590;2023-08-07T08:15:36;15.10;99.90
7494;DHT22;3788;49.902;8.590;2023-08-07T08:18:03;15.10;99.90
7494;DHT22;3788;49.902;8.590;2023-08-07T08:20:30;15.10;99.90
7494;DHT22;3788;49.902;8.590;2023-08-07T08:22:58;15.10;99.90
7494;DHT22;3788;49.902;8.590;2023-08-07T08:25:24;15.20;99.90
7494;DHT22;3788;49.902;8.590;2023-08-07T08:27:51;15.20;99.90
7494;DHT22;3788;49.902;8.590;2023-08-07T08:30:19;15.20;99.90
7494;DHT22;3788;49.902;8.590;2023-08-07T08:32:46;15.20;99.90
7494;DHT22;3788;49.902;8.590;2023-08-07T08:35:13;15.20;99.90
7494;DHT22;3788;49.902;8.590;2023-08-07T08:37:39;15.30;99.90
7494;DHT22;3788;49.902;8.590;2023-08-07T08:40:08;15.30;99.90
7494;DHT22;3788;49.902;8.590;2023-08-07T08:42:39;15.30;99.90
7494;DHT22;3788;49.902;8.590;2023-08-07T08:45:09;15.30;99.90
7494;DHT22;3788;49.902;8.590;2023-08-07T08:47:38;15.30;99.90
7494;DHT22;3788;49.902;8.590;2023-08-07T08:50:08;15.30;99.90
7494;DHT22;3788;49.902;8.590;2023-08-07T08:52:37;15.30;99.90
7494;DHT22;3788;49.902;8.590;2023-08-07T08:55:04;15.30;99.90
7494;DHT22;3788;49.902;8.590;2023-08-07T08:57:32;15.30;99.90
7494;DHT22;3788;49.902;8.590;2023-08-07T09:00:00;15.30;99.90
7494;DHT22;3788;49.902;8.590;2023-08-07T09:02:28;15.20;99.90
7494;DHT22;3788;49.902;8.590;2023-08-07T09:04:56;15.20;99.90
7494;DHT22;3788;49.902;8.590;2023-08-07T09:07:23;15.30;99.90
7494;DHT22;3788;49.902;8.590;2023-08-07T09:09:52;15.30;99.90
7494;DHT22;3788;49.902;8.590;2023-08-07T09:12:20;15.30;99.90
7494;DHT22;3788;49.902;8.590;2023-08-07T09:14:52;15.30;99.90
7494;DHT22;3788;49.902;8.590;2023-08-07T09:17:22;15.30;99.90
7494;DHT22;3788;49.902;8.590;2023-08-07T09:19:49;15.40;99.90
7494;DHT22;3788;49.902;8.590;2023-08-07T09:22:19;15.40;99.90
7494;DHT22;3788;49.902;8.590;2023-08-07T09:24:45;15.40;99.90
7494;DHT22;3788;49.902;8.590;2023-08-07T09:27:13;15.40;99.90
7494;DHT22;3788;49.902;8.590;2023-08-07T09:29:40;15.50;99.90
7494;DHT22;3788;49.902;8.590;2023-08-07T09:32:07;15.50;99.90
7494;DHT22;3788;49.902;8.590;2023-08-07T09:34:34;15.60;99.90
7494;DHT22;3788;49.902;8.590;2023-08-07T09:37:01;15.70;99.90
7494;DHT22;3788;49.902;8.590;2023-08-07T09:39:30;15.70;99.90
7494;DHT22;3788;49.902;8.590;2023-08-07T09:41:56;15.80;99.90
7494;DHT22;3788;49.902;8.590;2023-08-07T09:44:23;15.80;99.90
7494;DHT22;3788;49.902;8.590;2023-08-07T09:46:50;15.80;99.90
7494;DHT22;3788;49.902;8.590;2023-08-07T09:49:18;15.80;99.90
7494;DHT22;3788;49.902;8.590;2023-08-07T09:51:46;15.80;99.90
7494;DHT22;3788;49.902;8.590;2023-08-07T09:54:15;15.80;99.90
7494;DHT22;3788;49.902;8.590;2023-08-07T09:56:43;15.70;99.90
7494;DHT22;3788;49.902;8.590;2023-08-07T09:59:11;15.60;99.90
7494;DHT22;3788;49.902;8.590;2023-08-07T10:01:38;15.60;99.90
7494;DHT22;3788;49.902;8.590;2023-08-07T10:04:06;15.50;99.90
7494;DHT22;3788;49.902;8.590;2023-08-07T10:06:33;15.40;99.90
7494;DHT22;3788;49.902;8.590;2023-08-07T10:09:01;15.40;99.90
7494;DHT22;3788;49.902;8.590;2023-08-07T10:11:29;15.40;99.90
7494;DHT22;3788;49.902;8.590;2023-08-07T10:13:57;15.30;99.90
7494;DHT22;3788;49.902;8.590;2023-08-07T10:16:26;15.30;99.90
7494;DHT22;3788;49.902;8.590;2023-08-07T10:18:53;15.40;99.90
7494;DHT22;3788;49.902;8.590;2023-08-07T10:21:20;15.40;99.90
7494;DHT22;3788;49.902;8.590;2023-08-07T10:23:50;15.40;99.90
7494;DHT22;3788;49.902;8.590;2023-08-07T10:26:18;15.40;99.90
7494;DHT22;3788;49.902;8.590;2023-08-07T10:28:46;15.40;99.90
7494;DHT22;3788;49.902;8.590;2023-08-07T10:31:16;15.30;99.90
7494;DHT22;3788;49.902;8.590;2023-08-07T10:33:43;15.30;99.90
7494;DHT22;3788;49.902;8.590;2023-08-07T10:36:11;15.30;99.90
7494;DHT22;3788;49.902;8.590;2023-08-07T10:38:38;15.30;99.90
7494;DHT22;3788;49.902;8.590;2023-08-07T10:41:07;15.30;99.90
7494;DHT22;3788;49.902;8.590;2023-08-07T10:43:36;15.40;99.90
7494;DHT22;3788;49.902;8.590;2023-08-07T10:46:04;15.40;99.90
7494;DHT22;3788;49.902;8.590;2023-08-07T10:48:39;15.50;99.90
7494;DHT22;3788;49.902;8.590;2023-08-07T10:51:06;15.60;99.90
7494;DHT22;3788;49.902;8.590;2023-08-07T10:53:35;15.60;99.90
7494;DHT22;3788;49.902;8.590;2023-08-07T10:56:03;15.80;99.90
7494;DHT22;3788;49.902;8.590;2023-08-07T10:58:31;15.80;99.90
7494;DHT22;3788;49.902;8.590;2023-08-07T11:01:20;15.80;99.90
7494;DHT22;3788;49.902;8.590;2023-08-07T11:03:50;15.90;99.90
7494;DHT22;3788;49.902;8.590;2023-08-07T11:06:18;15.80;99.90
7494;DHT22;3788;49.902;8.590;2023-08-07T11:08:48;15.90;99.90
7494;DHT22;3788;49.902;8.590;2023-08-07T11:11:14;16.00;99.90
7494;DHT22;3788;49.902;8.590;2023-08-07T11:13:41;16.10;99.90
7494;DHT22;3788;49.902;8.590;2023-08-07T11:16:08;16.10;99.90
7494;DHT22;3788;49.902;8.590;2023-08-07T11:18:34;16.20;99.90
7494;DHT22;3788;49.902;8.590;2023-08-07T11:21:05;16.10;99.90
7494;DHT22;3788;49.902;8.590;2023-08-07T11:23:32;16.10;99.90
7494;DHT22;3788;49.902;8.590;2023-08-07T11:25:58;16.10;99.90
7494;DHT22;3788;49.902;8.590;2023-08-07T11:28:25;16.10;99.90
7494;DHT22;3788;49.902;8.590;2023-08-07T11:30:52;16.10;99.90
7494;DHT22;3788;49.902;8.590;2023-08-07T11:33:21;16.10;99.90
7494;DHT22;3788;49.902;8.590;2023-08-07T11:35:48;16.20;99.90
7494;DHT22;3788;49.902;8.590;2023-08-07T11:38:29;16.20;99.90
7494;DHT22;3788;49.902;8.590;2023-08-07T11:40:57;16.20;99.90
7494;DHT22;3788;49.902;8.590;2023-08-07T11:43:26;16.20;99.90
7494;DHT22;3788;49.902;8.590;2023-08-07T11:45:53;16.20;99.90
7494;DHT22;3788;49.902;8.590;2023-08-07T11:48:23;16.30;99.90
7494;DHT22;3788;49.902;8.590;2023-08-07T11:50:51;16.30;99.90
7494;DHT22;3788;49.902;8.590;2023-08-07T11:53:19;16.40;99.90
7494;DHT22;3788;49.902;8.590;2023-08-07T11:55:47;16.50;99.90
7494;DHT22;3788;49.902;8.590;2023-08-07T11:58:14;16.50;99.90
7494;DHT22;3788;49.902;8.590;2023-08-07T12:00:43;16.60;99.90
7494;DHT22;3788;49.902;8.590;2023-08-07T12:03:24;16.60;99.90
7494;DHT22;3788;49.902;8.590;2023-08-07T12:05:51;16.70;99.90
7494;DHT22;3788;49.902;8.590;2023-08-07T12:08:20;16.70;99.90
7494;DHT22;3788;49.902;8.590;2023-08-07T12:10:49;16.70;99.90
7494;DHT22;3788;49.902;8.590;2023-08-07T12:13:19;16.70;99.90
7494;DHT22;3788;49.902;8.590;2023-08-07T12:15:46;16.60;99.90
7494;DHT22;3788;49.902;8.590;2023-08-07T12:18:13;16.60;99.90
7494;DHT22;3788;49.902;8.590;2023-08-07T12:20:41;16.60;99.90
7494;DHT22;3788;49.902;8.590;2023-08-07T12:23:13;16.60;99.90
7494;DHT22;3788;49.902;8.590;2023-08-07T12:25:42;16.60;99.90
7494;DHT22;3788;49.902;8.590;2023-08-07T12:28:09;16.60;99.90
7494;DHT22;3788;49.902;8.590;2023-08-07T12:30:36;16.60;99.90
7494;DHT22;3788;49.902;8.590;2023-08-07T12:33:03;16.60;99.90
7494;DHT22;3788;49.902;8.590;2023-08-07T12:35:31;16.60;99.90
7494;DHT22;3788;49.902;8.590;2023-08-07T12:37:57;16.70;99.90
7494;DHT22;3788;49.902;8.590;2023-08-07T12:40:24;16.80;99.90
7494;DHT22;3788;49.902;8.590;2023-08-07T12:42:52;16.80;99.90
7494;DHT22;3788;49.902;8.590;2023-08-07T12:45:19;16.90;99.90
7494;DHT22;3788;49.902;8.590;2023-08-07T12:47:46;17.00;99.90
7494;DHT22;3788;49.902;8.590;2023-08-07T12:50:12;17.20;97.90
7494;DHT22;3788;49.902;8.590;2023-08-07T12:52:39;17.30;97.40
7494;DHT22;3788;49.902;8.590;2023-08-07T12:55:06;17.50;97.30
7494;DHT22;3788;49.902;8.590;2023-08-07T12:57:33;17.60;97.20
7494;DHT22;3788;49.902;8.590;2023-08-07T13:00:01;17.80;97.10
7494;DHT22;3788;49.902;8.590;2023-08-07T13:02:29;17.90;96.70
7494;DHT22;3788;49.902;8.590;2023-08-07T13:04:56;17.90;96.20
7494;DHT22;3788;49.902;8.590;2023-08-07T13:07:22;17.90;95.60
7494;DHT22;3788;49.902;8.590;2023-08-07T13:09:50;17.80;95.20
7494;DHT22;3788;49.902;8.590;2023-08-07T13:12:17;17.80;95.20
7494;DHT22;3788;49.902;8.590;2023-08-07T13:14:44;17.80;95.30
7494;DHT22;3788;49.902;8.590;2023-08-07T13:17:12;17.80;94.60
7494;DHT22;3788;49.902;8.590;2023-08-07T13:19:38;17.90;93.80
7494;DHT22;3788;49.902;8.590;2023-08-07T13:22:06;18.00;93.70
7494;DHT22;3788;49.902;8.590;2023-08-07T13:24:33;18.20;93.70
7494;DHT22;3788;49.902;8.590;2023-08-07T13:27:00;18.40;93.60
7494;DHT22;3788;49.902;8.590;2023-08-07T13:29:28;18.50;93.40
7494;DHT22;3788;49.902;8.590;2023-08-07T13:31:55;18.70;92.80
7494;DHT22;3788;49.902;8.590;2023-08-07T13:34:23;18.80;92.20
7494;DHT22;3788;49.902;8.590;2023-08-07T13:36:49;19.00;92.30
7494;DHT22;3788;49.902;8.590;2023-08-07T13:39:16;19.10;92.20
7494;DHT22;3788;49.902;8.590;2023-08-07T13:41:43;19.20;92.20
7494;DHT22;3788;49.902;8.590;2023-08-07T13:44:09;19.20;91.80
7494;DHT22;3788;49.902;8.590;2023-08-07T13:46:37;19.30;91.90
7494;DHT22;3788;49.902;8.590;2023-08-07T13:49:03;19.40;91.70
7494;DHT22;3788;49.902;8.590;2023-08-07T13:51:31;19.40;91.50
7494;DHT22;3788;49.902;8.590;2023-08-07T13:53:58;19.40;90.70
7494;DHT22;3788;49.902;8.590;2023-08-07T13:56:25;19.40;90.90
7494;DHT22;3788;49.902;8.590;2023-08-07T13:58:52;19.40;90.30
7494;DHT22;3788;49.902;8.590;2023-08-07T14:01:20;19.40;90.00
7494;DHT22;3788;49.902;8.590;2023-08-07T14:03:46;19.40;89.60
7494;DHT22;3788;49.902;8.590;2023-08-07T14:06:13;19.40;90.00
7494;DHT22;3788;49.902;8.590;2023-08-07T14:08:41;19.50;89.80
7494;DHT22;3788;49.902;8.590;2023-08-07T14:11:08;19.50;89.60
7494;DHT22;3788;49.902;8.590;2023-08-07T14:13:34;19.60;88.50
7494;DHT22;3788;49.902;8.590;2023-08-07T14:16:01;19.60;88.50
7494;DHT22;3788;49.902;8.590;2023-08-07T14:18:28;19.70;88.00
7494;DHT22;3788;49.902;8.590;2023-08-07T14:20:54;19.80;89.00
7494;DHT22;3788;49.902;8.590;2023-08-07T14:23:21;19.80;89.00
7494;DHT22;3788;49.902;8.590;2023-08-07T14:25:49;19.80;88.80
7494;DHT22;3788;49.902;8.590;2023-08-07T14:28:18;19.80;88.60
7494;DHT22;3788;49.902;8.590;2023-08-07T14:30:45;19.80;87.70
7494;DHT22;3788;49.902;8.590;2023-08-07T14:33:12;19.80;88.00
7494;DHT22;3788;49.902;8.590;2023-08-07T14:35:39;19.80;88.40
7494;DHT22;3788;49.902;8.590;2023-08-07T14:38:05;19.80;86.70
7494;DHT22;3788;49.902;8.590;2023-08-07T14:40:32;19.90;86.20
7494;DHT22;3788;49.902;8.590;2023-08-07T14:43:00;19.90;86.10
7494;DHT22;3788;49.902;8.590;2023-08-07T14:45:27;19.90;86.40
7494;DHT22;3788;49.902;8.590;2023-08-07T14:47:53;20.00;83.80
7494;DHT22;3788;49.902;8.590;2023-08-07T14:50:20;20.00;84.00
7494;DHT22;3788;49.902;8.590;2023-08-07T14:52:47;20.10;84.40
7494;DHT22;3788;49.902;8.590;2023-08-07T14:55:13;20.20;83.00
7494;DHT22;3788;49.902;8.590;2023-08-07T14:57:40;20.20;82.90
7494;DHT22;3788;49.902;8.590;2023-08-07T15:00:09;20.30;82.80
7494;DHT22;3788;49.902;8.590;2023-08-07T15:02:36;20.30;83.90
7494;DHT22;3788;49.902;8.590;2023-08-07T15:05:05;20.40;83.90
7494;DHT22;3788;49.902;8.590;2023-08-07T15:07:32;20.40;83.40
7494;DHT22;3788;49.902;8.590;2023-08-07T15:09:59;20.50;82.70
7494;DHT22;3788;49.902;8.590;2023-08-07T15:12:26;20.50;82.80
7494;DHT22;3788;49.902;8.590;2023-08-07T15:14:53;20.50;81.50
7494;DHT22;3788;49.902;8.590;2023-08-07T15:17:21;20.50;82.00
7494;DHT22;3788;49.902;8.590;2023-08-07T15:19:48;20.40;82.00
7494;DHT22;3788;49.902;8.590;2023-08-07T15:22:14;20.40;81.60
7494;DHT22;3788;49.902;8.590;2023-08-07T15:24:41;20.40;81.70
7494;DHT22;3788;49.902;8.590;2023-08-07T15:27:08;20.40;80.50
7494;DHT22;3788;49.902;8.590;2023-08-07T15:29:34;20.40;81.30
7494;DHT22;3788;49.902;8.590;2023-08-07T15:32:01;20.40;80.20
7494;DHT22;3788;49.902;8.590;2023-08-07T15:34:29;20.40;80.60
7494;DHT22;3788;49.902;8.590;2023-08-07T15:36:56;20.30;80.70
7494;DHT22;3788;49.902;8.590;2023-08-07T15:39:23;20.30;81.80
7494;DHT22;3788;49.902;8.590;2023-08-07T15:41:50;20.30;81.80
7494;DHT22;3788;49.902;8.590;2023-08-07T15:44:16;20.20;81.70
7494;DHT22;3788;49.902;8.590;2023-08-07T15:46:43;20.20;81.60
7494;DHT22;3788;49.902;8.590;2023-08-07T15:49:10;20.30;81.50
7494;DHT22;3788;49.902;8.590;2023-08-07T15:51:38;20.30;81.00
7494;DHT22;3788;49.902;8.590;2023-08-07T15:54:04;20.30;80.70
7494;DHT22;3788;49.902;8.590;2023-08-07T15:56:31;20.30;80.70
7494;DHT22;3788;49.902;8.590;2023-08-07T15:58:58;20.30;80.90
7494;DHT22;3788;49.902;8.590;2023-08-07T16:01:24;20.30;81.20
7494;DHT22;3788;49.902;8.590;2023-08-07T16:03:51;20.30;81.00